sensor_id;sensor_type;location;lat;lon;timestamp;P1;durP1;ratioP1;P2;durP2;ratioP2
71351;SDS011;59159;51.652;4.864;2023-07-29T00:02:12;6.47;;;1.70;;
71351;SDS011;59159;51.652;4.864;2023-07-29T00:04:38;4.87;;;1.50;;
71351;SDS011;59159;51.652;4.864;2023-07-29T00:07:04;4.60;;;1.40;;
71351;SDS011;59159;51.652;4.864;2023-07-29T00:09:30;6.45;;;1.55;;
71351;SDS011;59159;51.652;4.864;2023-07-29T00:11:56;5.90;;;1.60;;
71351;SDS011;59159;51.652;4.864;2023-07-29T00:14:22;5.23;;;1.63;;
71351;SDS011;59159;51.652;4.864;2023-07-29T00:16:48;5.28;;;1.75;;
71351;SDS011;59159;51.652;4.864;2023-07-29T00:19:14;7.70;;;1.90;;
71351;SDS011;59159;51.652;4.864;2023-07-29T00:21:40;6.30;;;1.57;;
71351;SDS011;59159;51.652;4.864;2023-07-29T00:24:06;4.88;;;1.50;;
71351;SDS011;59159;51.652;4.864;2023-07-29T00:26:32;5.60;;;1.38;;
71351;SDS011;59159;51.652;4.864;2023-07-29T00:28:58;5.37;;;1.60;;
71351;SDS011;59159;51.652;4.864;2023-07-29T00:31:24;4.82;;;1.13;;
71351;SDS011;59159;51.652;4.864;2023-07-29T00:33:50;5.85;;;1.60;;
71351;SDS011;59159;51.652;4.864;2023-07-29T00:36:17;5.07;;;1.52;;
71351;SDS011;59159;51.652;4.864;2023-07-29T00:38:44;4.53;;;1.23;;
71351;SDS011;59159;51.652;4.864;2023-07-29T00:41:10;5.07;;;1.20;;
71351;SDS011;59159;51.652;4.864;2023-07-29T00:43:38;5.80;;;1.40;;
71351;SDS011;59159;51.652;4.864;2023-07-29T00:46:04;4.17;;;1.20;;
71351;SDS011;59159;51.652;4.864;2023-07-29T00:48:30;6.05;;;1.30;;
71351;SDS011;59159;51.652;4.864;2023-07-29T00:50:56;4.22;;;1.20;;
71351;SDS011;59159;51.652;4.864;2023-07-29T00:53:22;4.80;;;1.30;;
71351;SDS011;59159;51.652;4.864;2023-07-29T00:55:48;5.40;;;1.48;;
71351;SDS011;59159;51.652;4.864;2023-07-29T00:58:14;5.07;;;1.33;;
71351;SDS011;59159;51.652;4.864;2023-07-29T01:00:40;4.70;;;1.27;;
71351;SDS011;59159;51.652;4.864;2023-07-29T01:03:07;6.67;;;1.30;;
71351;SDS011;59159;51.652;4.864;2023-07-29T01:05:36;6.03;;;1.20;;
71351;SDS011;59159;51.652;4.864;2023-07-29T01:08:08;4.13;;;1.20;;
71351;SDS011;59159;51.652;4.864;2023-07-29T01:15:33;4.80;;;1.00;;
71351;SDS011;59159;51.652;4.864;2023-07-29T01:18:05;3.90;;;1.10;;
71351;SDS011;59159;51.652;4.864;2023-07-29T01:20:32;5.22;;;1.17;;
71351;SDS011;59159;51.652;4.864;2023-07-29T01:22:59;3.50;;;0.90;;
71351;SDS011;59159;51.652;4.864;2023-07-29T01:25:25;5.57;;;1.40;;
71351;SDS011;59159;51.652;4.864;2023-07-29T01:27:51;4.27;;;0.97;;
71351;SDS011;59159;51.652;4.864;2023-07-29T01:30:18;4.70;;;1.20;;
71351;SDS011;59159;51.652;4.864;2023-07-29T01:32:53;6.15;;;1.35;;
71351;SDS011;59159;51.652;4.864;2023-07-29T01:37:55;3.92;;;0.93;;
71351;SDS011;59159;51.652;4.864;2023-07-29T01:40:24;4.90;;;1.40;;
71351;SDS011;59159;51.652;4.864;2023-07-29T01:42:52;3.40;;;1.00;;
71351;SDS011;59159;51.652;4.864;2023-07-29T01:45:18;4.18;;;1.10;;
71351;SDS011;59159;51.652;4.864;2023-07-29T01:47:44;4.70;;;1.30;;
71351;SDS011;59159;51.652;4.864;2023-07-29T01:50:10;3.47;;;1.00;;
71351;SDS011;59159;51.652;4.864;2023-07-29T01:52:37;4.30;;;1.10;;
71351;SDS011;59159;51.652;4.864;2023-07-29T01:55:03;4.30;;;1.08;;
71351;SDS011;59159;51.652;4.864;2023-07-29T01:57:29;4.93;;;1.08;;
71351;SDS011;59159;51.652;4.864;2023-07-29T01:59:55;3.30;;;1.03;;
71351;SDS011;59159;51.652;4.864;2023-07-29T02:02:21;3.95;;;1.08;;
71351;SDS011;59159;51.652;4.864;2023-07-29T02:04:47;3.53;;;1.10;;
71351;SDS011;59159;51.652;4.864;2023-07-29T02:07:16;3.93;;;1.00;;
71351;SDS011;59159;51.652;4.864;2023-07-29T02:09:43;5.18;;;0.93;;
71351;SDS011;59159;51.652;4.864;2023-07-29T02:12:09;3.40;;;0.98;;
71351;SDS011;59159;51.652;4.864;2023-07-29T02:14:35;4.68;;;1.38;;
71351;SDS011;59159;51.652;4.864;2023-07-29T02:17:01;3.67;;;1.13;;
71351;SDS011;59159;51.652;4.864;2023-07-29T02:19:27;4.15;;;1.10;;
71351;SDS011;59159;51.652;4.864;2023-07-29T02:21:53;3.88;;;1.08;;
71351;SDS011;59159;51.652;4.864;2023-07-29T02:24:19;4.83;;;1.00;;
71351;SDS011;59159;51.652;4.864;2023-07-29T02:26:45;4.10;;;1.20;;
71351;SDS011;59159;51.652;4.864;2023-07-29T02:29:11;3.95;;;1.10;;
71351;SDS011;59159;51.652;4.864;2023-07-29T02:31:37;4.50;;;1.00;;
71351;SDS011;59159;51.652;4.864;2023-07-29T02:34:03;3.17;;;0.82;;
71351;SDS011;59159;51.652;4.864;2023-07-29T02:36:29;3.80;;;1.20;;
71351;SDS011;59159;51.652;4.864;2023-07-29T02:38:55;5.28;;;1.25;;
71351;SDS011;59159;51.652;4.864;2023-07-29T02:41:21;4.13;;;1.30;;
71351;SDS011;59159;51.652;4.864;2023-07-29T02:43:48;4.38;;;1.20;;
71351;SDS011;59159;51.652;4.864;2023-07-29T02:46:14;3.83;;;1.20;;
71351;SDS011;59159;51.652;4.864;2023-07-29T02:48:40;3.87;;;0.90;;
71351;SDS011;59159;51.652;4.864;2023-07-29T02:51:06;4.07;;;1.05;;
71351;SDS011;59159;51.652;4.864;2023-07-29T02:53:32;3.63;;;1.00;;
71351;SDS011;59159;51.652;4.864;2023-07-29T02:55:58;3.77;;;1.00;;
71351;SDS011;59159;51.652;4.864;2023-07-29T02:58:24;3.78;;;0.85;;
71351;SDS011;59159;51.652;4.864;2023-07-29T03:00:51;3.38;;;1.00;;
71351;SDS011;59159;51.652;4.864;2023-07-29T03:03:17;3.97;;;1.02;;
71351;SDS011;59159;51.652;4.864;2023-07-29T03:05:44;3.80;;;0.83;;
71351;SDS011;59159;51.652;4.864;2023-07-29T03:08:10;4.95;;;0.90;;
71351;SDS011;59159;51.652;4.864;2023-07-29T03:10:37;4.60;;;1.13;;
71351;SDS011;59159;51.652;4.864;2023-07-29T03:13:03;3.60;;;1.17;;
71351;SDS011;59159;51.652;4.864;2023-07-29T03:15:29;4.45;;;1.40;;
71351;SDS011;59159;51.652;4.864;2023-07-29T03:17:55;4.25;;;0.90;;
71351;SDS011;59159;51.652;4.864;2023-07-29T03:20:21;2.67;;;0.80;;
71351;SDS011;59159;51.652;4.864;2023-07-29T03:22:47;3.28;;;0.80;;
71351;SDS011;59159;51.652;4.864;2023-07-29T03:25:13;3.15;;;0.80;;
71351;SDS011;59159;51.652;4.864;2023-07-29T03:27:39;4.07;;;1.10;;
71351;SDS011;59159;51.652;4.864;2023-07-29T03:30:05;4.20;;;1.10;;
71351;SDS011;59159;51.652;4.864;2023-07-29T03:32:32;4.10;;;0.90;;
71351;SDS011;59159;51.652;4.864;2023-07-29T03:34:58;3.80;;;0.90;;
71351;SDS011;59159;51.652;4.864;2023-07-29T03:37:24;4.53;;;1.00;;
71351;SDS011;59159;51.652;4.864;2023-07-29T03:39:50;3.25;;;0.80;;
71351;SDS011;59159;51.652;4.864;2023-07-29T03:42:17;3.63;;;0.90;;
71351;SDS011;59159;51.652;4.864;2023-07-29T03:44:43;3.60;;;0.93;;
71351;SDS011;59159;51.652;4.864;2023-07-29T03:47:09;4.30;;;0.88;;
71351;SDS011;59159;51.652;4.864;2023-07-29T03:49:35;3.58;;;0.80;;
71351;SDS011;59159;51.652;4.864;2023-07-29T03:52:01;4.63;;;1.08;;
71351;SDS011;59159;51.652;4.864;2023-07-29T03:54:27;2.90;;;0.80;;
71351;SDS011;59159;51.652;4.864;2023-07-29T03:56:53;3.85;;;1.42;;
71351;SDS011;59159;51.652;4.864;2023-07-29T03:59:19;2.92;;;0.80;;
71351;SDS011;59159;51.652;4.864;2023-07-29T04:01:47;3.17;;;0.70;;
71351;SDS011;59159;51.652;4.864;2023-07-29T04:04:13;3.13;;;0.75;;
71351;SDS011;59159;51.652;4.864;2023-07-29T04:06:39;5.65;;;0.95;;
71351;SDS011;59159;51.652;4.864;2023-07-29T04:09:05;3.13;;;0.73;;
71351;SDS011;59159;51.652;4.864;2023-07-29T04:11:32;4.30;;;0.95;;
71351;SDS011;59159;51.652;4.864;2023-07-29T04:13:58;4.80;;;1.27;;
71351;SDS011;59159;51.652;4.864;2023-07-29T04:16:24;4.28;;;1.13;;
71351;SDS011;59159;51.652;4.864;2023-07-29T04:18:50;4.77;;;1.20;;
71351;SDS011;59159;51.652;4.864;2023-07-29T04:21:16;4.07;;;1.00;;
71351;SDS011;59159;51.652;4.864;2023-07-29T04:23:42;3.92;;;0.93;;
71351;SDS011;59159;51.652;4.864;2023-07-29T04:26:08;4.83;;;1.07;;
71351;SDS011;59159;51.652;4.864;2023-07-29T04:28:34;3.92;;;1.00;;
71351;SDS011;59159;51.652;4.864;2023-07-29T04:31:00;4.22;;;1.08;;
71351;SDS011;59159;51.652;4.864;2023-07-29T04:33:26;2.77;;;0.80;;
71351;SDS011;59159;51.652;4.864;2023-07-29T04:35:52;3.95;;;1.17;;
71351;SDS011;59159;51.652;4.864;2023-07-29T04:38:18;4.20;;;1.20;;
71351;SDS011;59159;51.652;4.864;2023-07-29T04:40:44;3.33;;;0.98;;
71351;SDS011;59159;51.652;4.864;2023-07-29T04:43:10;4.93;;;1.17;;
71351;SDS011;59159;51.652;4.864;2023-07-29T04:45:36;4.40;;;1.17;;
71351;SDS011;59159;51.652;4.864;2023-07-29T04:48:02;4.68;;;1.10;;
71351;SDS011;59159;51.652;4.864;2023-07-29T04:50:28;5.20;;;1.57;;
71351;SDS011;59159;51.652;4.864;2023-07-29T04:52:54;5.43;;;1.67;;
71351;SDS011;59159;51.652;4.864;2023-07-29T04:55:20;5.35;;;1.63;;
71351;SDS011;59159;51.652;4.864;2023-07-29T04:57:46;26.70;;;3.17;;
71351;SDS011;59159;51.652;4.864;2023-07-29T05:00:12;5.38;;;1.70;;
71351;SDS011;59159;51.652;4.864;2023-07-29T05:02:38;7.38;;;2.90;;
71351;SDS011;59159;51.652;4.864;2023-07-29T05:05:04;5.07;;;2.00;;
71351;SDS011;59159;51.652;4.864;2023-07-29T05:07:30;6.00;;;2.10;;
71351;SDS011;59159;51.652;4.864;2023-07-29T05:09:56;6.45;;;1.90;;
71351;SDS011;59159;51.652;4.864;2023-07-29T05:12:22;6.80;;;1.92;;
71351;SDS011;59159;51.652;4.864;2023-07-29T05:14:48;5.77;;;1.80;;
71351;SDS011;59159;51.652;4.864;2023-07-29T05:17:14;6.22;;;1.80;;
71351;SDS011;59159;51.652;4.864;2023-07-29T05:19:40;5.78;;;1.77;;
71351;SDS011;59159;51.652;4.864;2023-07-29T05:22:06;6.37;;;1.80;;
71351;SDS011;59159;51.652;4.864;2023-07-29T05:24:32;5.88;;;2.22;;
71351;SDS011;59159;51.652;4.864;2023-07-29T05:26:58;6.57;;;1.60;;
71351;SDS011;59159;51.652;4.864;2023-07-29T05:29:25;6.72;;;1.70;;
71351;SDS011;59159;51.652;4.864;2023-07-29T05:31:51;7.00;;;1.83;;
71351;SDS011;59159;51.652;4.864;2023-07-29T05:34:17;6.68;;;1.60;;
71351;SDS011;59159;51.652;4.864;2023-07-29T05:36:44;5.32;;;1.65;;
71351;SDS011;59159;51.652;4.864;2023-07-29T05:39:10;4.27;;;1.33;;
71351;SDS011;59159;51.652;4.864;2023-07-29T05:41:37;4.85;;;1.42;;
71351;SDS011;59159;51.652;4.864;2023-07-29T05:44:03;6.03;;;1.30;;
71351;SDS011;59159;51.652;4.864;2023-07-29T05:46:29;4.67;;;1.37;;
71351;SDS011;59159;51.652;4.864;2023-07-29T05:48:55;5.22;;;1.65;;
71351;SDS011;59159;51.652;4.864;2023-07-29T05:51:21;5.45;;;1.55;;
71351;SDS011;59159;51.652;4.864;2023-07-29T05:53:47;4.15;;;1.20;;
71351;SDS011;59159;51.652;4.864;2023-07-29T05:56:13;5.87;;;1.47;;
71351;SDS011;59159;51.652;4.864;2023-07-29T05:58:39;4.55;;;1.20;;
71351;SDS011;59159;51.652;4.864;2023-07-29T06:01:05;4.82;;;1.10;;
71351;SDS011;59159;51.652;4.864;2023-07-29T06:03:31;5.23;;;1.67;;
71351;SDS011;59159;51.652;4.864;2023-07-29T06:05:57;4.20;;;1.20;;
71351;SDS011;59159;51.652;4.864;2023-07-29T06:08:23;4.18;;;1.25;;
71351;SDS011;59159;51.652;4.864;2023-07-29T06:10:49;4.53;;;1.30;;
71351;SDS011;59159;51.652;4.864;2023-07-29T06:13:15;5.90;;;1.35;;
71351;SDS011;59159;51.652;4.864;2023-07-29T06:15:41;3.90;;;1.23;;
71351;SDS011;59159;51.652;4.864;2023-07-29T06:18:07;4.57;;;1.40;;
71351;SDS011;59159;51.652;4.864;2023-07-29T06:20:33;4.30;;;1.37;;
71351;SDS011;59159;51.652;4.864;2023-07-29T06:22:59;4.97;;;1.60;;
71351;SDS011;59159;51.652;4.864;2023-07-29T06:25:25;4.20;;;1.13;;
71351;SDS011;59159;51.652;4.864;2023-07-29T06:27:51;5.27;;;1.50;;
71351;SDS011;59159;51.652;4.864;2023-07-29T06:30:17;3.80;;;1.20;;
71351;SDS011;59159;51.652;4.864;2023-07-29T06:32:43;5.25;;;1.30;;
71351;SDS011;59159;51.652;4.864;2023-07-29T06:35:09;6.17;;;1.70;;
71351;SDS011;59159;51.652;4.864;2023-07-29T06:37:35;4.57;;;1.17;;
71351;SDS011;59159;51.652;4.864;2023-07-29T06:40:01;4.50;;;1.30;;
71351;SDS011;59159;51.652;4.864;2023-07-29T06:42:27;4.30;;;1.33;;
71351;SDS011;59159;51.652;4.864;2023-07-29T06:44:53;5.10;;;1.70;;
71351;SDS011;59159;51.652;4.864;2023-07-29T06:47:19;4.25;;;1.50;;
71351;SDS011;59159;51.652;4.864;2023-07-29T06:49:45;4.63;;;1.23;;
71351;SDS011;59159;51.652;4.864;2023-07-29T06:52:12;3.90;;;1.20;;
71351;SDS011;59159;51.652;4.864;2023-07-29T06:54:38;4.20;;;1.15;;
71351;SDS011;59159;51.652;4.864;2023-07-29T06:57:04;5.00;;;1.33;;
71351;SDS011;59159;51.652;4.864;2023-07-29T06:59:30;4.97;;;1.10;;
71351;SDS011;59159;51.652;4.864;2023-07-29T07:01:56;5.05;;;1.08;;
71351;SDS011;59159;51.652;4.864;2023-07-29T07:04:22;4.90;;;1.20;;
71351;SDS011;59159;51.652;4.864;2023-07-29T07:06:48;4.35;;;1.40;;
71351;SDS011;59159;51.652;4.864;2023-07-29T07:09:14;4.33;;;1.30;;
71351;SDS011;59159;51.652;4.864;2023-07-29T07:11:40;5.22;;;1.20;;
71351;SDS011;59159;51.652;4.864;2023-07-29T07:14:06;4.47;;;1.20;;
71351;SDS011;59159;51.652;4.864;2023-07-29T07:16:32;4.33;;;1.10;;
71351;SDS011;59159;51.652;4.864;2023-07-29T07:18:58;4.95;;;1.20;;
71351;SDS011;59159;51.652;4.864;2023-07-29T07:21:24;4.38;;;1.20;;
71351;SDS011;59159;51.652;4.864;2023-07-29T07:23:50;4.87;;;1.40;;
71351;SDS011;59159;51.652;4.864;2023-07-29T07:26:16;5.93;;;1.20;;
71351;SDS011;59159;51.652;4.864;2023-07-29T07:28:42;4.28;;;1.23;;
71351;SDS011;59159;51.652;4.864;2023-07-29T07:31:08;4.00;;;1.02;;
71351;SDS011;59159;51.652;4.864;2023-07-29T07:33:34;4.37;;;1.20;;
71351;SDS011;59159;51.652;4.864;2023-07-29T07:36:00;4.65;;;1.40;;
71351;SDS011;59159;51.652;4.864;2023-07-29T07:38:26;5.07;;;1.55;;
71351;SDS011;59159;51.652;4.864;2023-07-29T07:40:55;4.87;;;2.00;;
71351;SDS011;59159;51.652;4.864;2023-07-29T07:43:22;4.85;;;1.10;;
71351;SDS011;59159;51.652;4.864;2023-07-29T07:45:48;4.88;;;1.20;;
71351;SDS011;59159;51.652;4.864;2023-07-29T07:48:14;4.23;;;1.20;;
71351;SDS011;59159;51.652;4.864;2023-07-29T07:50:41;4.75;;;1.08;;
71351;SDS011;59159;51.652;4.864;2023-07-29T07:53:07;3.33;;;1.02;;
71351;SDS011;59159;51.652;4.864;2023-07-29T07:55:33;4.30;;;1.17;;
71351;SDS011;59159;51.652;4.864;2023-07-29T07:57:59;5.87;;;1.90;;
71351;SDS011;59159;51.652;4.864;2023-07-29T08:00:25;3.95;;;1.10;;
71351;SDS011;59159;51.652;4.864;2023-07-29T08:02:51;4.03;;;1.10;;
71351;SDS011;59159;51.652;4.864;2023-07-29T08:05:18;4.33;;;1.10;;
71351;SDS011;59159;51.652;4.864;2023-07-29T08:07:44;5.00;;;1.30;;
71351;SDS011;59159;51.652;4.864;2023-07-29T08:10:10;3.83;;;1.10;;
71351;SDS011;59159;51.652;4.864;2023-07-29T08:12:36;3.57;;;1.00;;
71351;SDS011;59159;51.652;4.864;2023-07-29T08:15:02;3.80;;;1.10;;
71351;SDS011;59159;51.652;4.864;2023-07-29T08:17:28;4.38;;;1.00;;
71351;SDS011;59159;51.652;4.864;2023-07-29T08:19:54;4.07;;;1.23;;
71351;SDS011;59159;51.652;4.864;2023-07-29T08:22:20;3.70;;;1.20;;
71351;SDS011;59159;51.652;4.864;2023-07-29T08:24:46;3.53;;;1.00;;
71351;SDS011;59159;51.652;4.864;2023-07-29T08:27:12;3.53;;;0.95;;
71351;SDS011;59159;51.652;4.864;2023-07-29T08:29:38;4.20;;;1.13;;
71351;SDS011;59159;51.652;4.864;2023-07-29T08:32:04;3.80;;;1.00;;
71351;SDS011;59159;51.652;4.864;2023-07-29T08:34:30;4.38;;;0.90;;
71351;SDS011;59159;51.652;4.864;2023-07-29T08:36:56;4.30;;;1.00;;
71351;SDS011;59159;51.652;4.864;2023-07-29T08:39:22;3.63;;;0.85;;
71351;SDS011;59159;51.652;4.864;2023-07-29T08:42:00;3.50;;;1.02;;
71351;SDS011;59159;51.652;4.864;2023-07-29T08:44:30;4.03;;;1.13;;
71351;SDS011;59159;51.652;4.864;2023-07-29T08:46:56;4.53;;;1.20;;
71351;SDS011;59159;51.652;4.864;2023-07-29T08:49:22;4.80;;;1.13;;
71351;SDS011;59159;51.652;4.864;2023-07-29T08:51:49;4.18;;;1.10;;
71351;SDS011;59159;51.652;4.864;2023-07-29T08:54:15;6.27;;;1.33;;
71351;SDS011;59159;51.652;4.864;2023-07-29T08:56:42;8.85;;;2.83;;
71351;SDS011;59159;51.652;4.864;2023-07-29T08:59:08;4.85;;;1.15;;
71351;SDS011;59159;51.652;4.864;2023-07-29T09:01:35;4.10;;;1.43;;
71351;SDS011;59159;51.652;4.864;2023-07-29T09:04:01;4.32;;;1.15;;
71351;SDS011;59159;51.652;4.864;2023-07-29T09:06:28;5.00;;;1.25;;
71351;SDS011;59159;51.652;4.864;2023-07-29T09:08:54;6.35;;;1.42;;
71351;SDS011;59159;51.652;4.864;2023-07-29T09:11:23;4.37;;;1.10;;
71351;SDS011;59159;51.652;4.864;2023-07-29T09:13:49;7.57;;;1.40;;
71351;SDS011;59159;51.652;4.864;2023-07-29T09:16:15;5.32;;;1.60;;
71351;SDS011;59159;51.652;4.864;2023-07-29T09:18:41;6.67;;;1.10;;
71351;SDS011;59159;51.652;4.864;2023-07-29T09:21:07;4.38;;;1.27;;
71351;SDS011;59159;51.652;4.864;2023-07-29T09:23:43;5.72;;;1.20;;
71351;SDS011;59159;51.652;4.864;2023-07-29T09:26:09;5.77;;;1.13;;
71351;SDS011;59159;51.652;4.864;2023-07-29T09:28:36;5.53;;;1.50;;
71351;SDS011;59159;51.652;4.864;2023-07-29T09:31:03;4.45;;;1.20;;
71351;SDS011;59159;51.652;4.864;2023-07-29T09:33:30;4.00;;;1.10;;
71351;SDS011;59159;51.652;4.864;2023-07-29T09:35:56;4.33;;;1.07;;
71351;SDS011;59159;51.652;4.864;2023-07-29T09:38:26;5.00;;;1.20;;
71351;SDS011;59159;51.652;4.864;2023-07-29T09:40:54;4.47;;;1.17;;
71351;SDS011;59159;51.652;4.864;2023-07-29T09:43:20;5.60;;;1.00;;
71351;SDS011;59159;51.652;4.864;2023-07-29T09:45:51;4.28;;;1.35;;
71351;SDS011;59159;51.652;4.864;2023-07-29T09:48:19;3.72;;;1.15;;
71351;SDS011;59159;51.652;4.864;2023-07-29T09:50:47;3.73;;;1.10;;
71351;SDS011;59159;51.652;4.864;2023-07-29T09:53:14;3.80;;;1.17;;
71351;SDS011;59159;51.652;4.864;2023-07-29T09:55:40;4.50;;;1.30;;
71351;SDS011;59159;51.652;4.864;2023-07-29T09:58:11;4.95;;;1.40;;
71351;SDS011;59159;51.652;4.864;2023-07-29T10:00:37;4.03;;;1.23;;
71351;SDS011;59159;51.652;4.864;2023-07-29T10:03:05;3.88;;;1.05;;
71351;SDS011;59159;51.652;4.864;2023-07-29T10:05:32;3.95;;;1.13;;
71351;SDS011;59159;51.652;4.864;2023-07-29T10:08:00;3.73;;;1.20;;
71351;SDS011;59159;51.652;4.864;2023-07-29T10:10:27;7.55;;;1.90;;
71351;SDS011;59159;51.652;4.864;2023-07-29T10:12:54;4.57;;;1.40;;
71351;SDS011;59159;51.652;4.864;2023-07-29T10:15:20;5.43;;;1.83;;
71351;SDS011;59159;51.652;4.864;2023-07-29T10:17:46;4.30;;;1.40;;
71351;SDS011;59159;51.652;4.864;2023-07-29T10:20:14;4.70;;;1.48;;
71351;SDS011;59159;51.652;4.864;2023-07-29T10:22:40;5.82;;;1.58;;
71351;SDS011;59159;51.652;4.864;2023-07-29T10:25:07;8.93;;;1.60;;
71351;SDS011;59159;51.652;4.864;2023-07-29T10:27:35;6.43;;;1.55;;
71351;SDS011;59159;51.652;4.864;2023-07-29T10:30:05;5.35;;;1.58;;
71351;SDS011;59159;51.652;4.864;2023-07-29T10:32:31;6.10;;;1.00;;
71351;SDS011;59159;51.652;4.864;2023-07-29T10:34:58;5.38;;;1.33;;
71351;SDS011;59159;51.652;4.864;2023-07-29T10:37:24;7.13;;;1.20;;
71351;SDS011;59159;51.652;4.864;2023-07-29T10:39:56;4.30;;;1.33;;
71351;SDS011;59159;51.652;4.864;2023-07-29T10:42:22;5.45;;;1.33;;
71351;SDS011;59159;51.652;4.864;2023-07-29T10:44:49;5.60;;;1.27;;
71351;SDS011;59159;51.652;4.864;2023-07-29T10:47:16;5.13;;;1.08;;
71351;SDS011;59159;51.652;4.864;2023-07-29T10:49:45;3.93;;;1.13;;
71351;SDS011;59159;51.652;4.864;2023-07-29T10:52:15;4.75;;;1.40;;
71351;SDS011;59159;51.652;4.864;2023-07-29T10:54:45;5.47;;;1.40;;
71351;SDS011;59159;51.652;4.864;2023-07-29T10:57:15;5.20;;;1.33;;
71351;SDS011;59159;51.652;4.864;2023-07-29T10:59:41;5.57;;;1.40;;
71351;SDS011;59159;51.652;4.864;2023-07-29T11:02:12;5.53;;;1.50;;
71351;SDS011;59159;51.652;4.864;2023-07-29T11:04:49;4.33;;;1.20;;
71351;SDS011;59159;51.652;4.864;2023-07-29T11:14:54;4.50;;;1.10;;
71351;SDS011;59159;51.652;4.864;2023-07-29T11:17:20;4.43;;;1.30;;
71351;SDS011;59159;51.652;4.864;2023-07-29T11:19:46;4.68;;;1.30;;
71351;SDS011;59159;51.652;4.864;2023-07-29T11:22:13;4.07;;;1.17;;
71351;SDS011;59159;51.652;4.864;2023-07-29T11:24:41;9.52;;;1.70;;
71351;SDS011;59159;51.652;4.864;2023-07-29T11:27:11;4.63;;;1.27;;
71351;SDS011;59159;51.652;4.864;2023-07-29T11:29:37;4.87;;;0.90;;
71351;SDS011;59159;51.652;4.864;2023-07-29T11:32:03;3.97;;;1.20;;
71351;SDS011;59159;51.652;4.864;2023-07-29T11:34:32;4.43;;;1.02;;
71351;SDS011;59159;51.652;4.864;2023-07-29T11:36:58;5.10;;;1.13;;
71351;SDS011;59159;51.652;4.864;2023-07-29T11:39:24;5.03;;;1.50;;
71351;SDS011;59159;51.652;4.864;2023-07-29T11:41:51;3.70;;;1.25;;
71351;SDS011;59159;51.652;4.864;2023-07-29T11:44:17;4.65;;;1.13;;
71351;SDS011;59159;51.652;4.864;2023-07-29T11:46:44;4.03;;;1.07;;
71351;SDS011;59159;51.652;4.864;2023-07-29T11:49:10;3.90;;;1.00;;
71351;SDS011;59159;51.652;4.864;2023-07-29T11:51:36;2.97;;;1.00;;
71351;SDS011;59159;51.652;4.864;2023-07-29T11:54:03;3.60;;;1.07;;
71351;SDS011;59159;51.652;4.864;2023-07-29T11:56:29;5.80;;;1.73;;
71351;SDS011;59159;51.652;4.864;2023-07-29T11:58:55;4.57;;;1.00;;
71351;SDS011;59159;51.652;4.864;2023-07-29T12:01:22;3.38;;;1.00;;
71351;SDS011;59159;51.652;4.864;2023-07-29T12:03:49;4.33;;;1.23;;
71351;SDS011;59159;51.652;4.864;2023-07-29T12:06:16;3.53;;;1.05;;
71351;SDS011;59159;51.652;4.864;2023-07-29T12:08:42;4.30;;;1.00;;
71351;SDS011;59159;51.652;4.864;2023-07-29T12:11:09;6.67;;;1.57;;
71351;SDS011;59159;51.652;4.864;2023-07-29T12:13:37;3.75;;;1.10;;
71351;SDS011;59159;51.652;4.864;2023-07-29T12:16:03;5.10;;;1.17;;
71351;SDS011;59159;51.652;4.864;2023-07-29T12:18:30;4.23;;;1.20;;
71351;SDS011;59159;51.652;4.864;2023-07-29T12:20:57;4.05;;;1.00;;
71351;SDS011;59159;51.652;4.864;2023-07-29T12:23:24;3.92;;;1.20;;
71351;SDS011;59159;51.652;4.864;2023-07-29T12:25:57;4.18;;;1.10;;
71351;SDS011;59159;51.652;4.864;2023-07-29T12:28:24;3.90;;;1.10;;
71351;SDS011;59159;51.652;4.864;2023-07-29T12:30:53;3.33;;;0.90;;
71351;SDS011;59159;51.652;4.864;2023-07-29T12:33:32;4.45;;;1.17;;
71351;SDS011;59159;51.652;4.864;2023-07-29T12:35:58;5.17;;;1.53;;
71351;SDS011;59159;51.652;4.864;2023-07-29T12:38:30;4.50;;;1.30;;
71351;SDS011;59159;51.652;4.864;2023-07-29T12:40:56;3.97;;;1.20;;
71351;SDS011;59159;51.652;4.864;2023-07-29T12:43:22;4.83;;;1.33;;
71351;SDS011;59159;51.652;4.864;2023-07-29T12:45:49;8.60;;;4.47;;
71351;SDS011;59159;51.652;4.864;2023-07-29T12:48:15;14.30;;;7.57;;
71351;SDS011;59159;51.652;4.864;2023-07-29T12:50:41;20.30;;;11.07;;
71351;SDS011;59159;51.652;4.864;2023-07-29T12:53:07;16.87;;;10.10;;
71351;SDS011;59159;51.652;4.864;2023-07-29T12:55:35;18.20;;;11.30;;
71351;SDS011;59159;51.652;4.864;2023-07-29T12:58:01;21.40;;;13.98;;
71351;SDS011;59159;51.652;4.864;2023-07-29T13:00:27;17.17;;;11.73;;
71351;SDS011;59159;51.652;4.864;2023-07-29T13:02:53;19.77;;;12.30;;
71351;SDS011;59159;51.652;4.864;2023-07-29T13:05:20;20.88;;;12.20;;
71351;SDS011;59159;51.652;4.864;2023-07-29T13:07:46;19.33;;;11.40;;
71351;SDS011;59159;51.652;4.864;2023-07-29T13:10:12;19.50;;;10.50;;
71351;SDS011;59159;51.652;4.864;2023-07-29T13:12:38;18.38;;;9.07;;
71351;SDS011;59159;51.652;4.864;2023-07-29T13:15:05;14.25;;;9.15;;
71351;SDS011;59159;51.652;4.864;2023-07-29T13:17:31;16.27;;;10.40;;
71351;SDS011;59159;51.652;4.864;2023-07-29T13:19:57;12.98;;;8.13;;
71351;SDS011;59159;51.652;4.864;2023-07-29T13:22:23;14.13;;;8.55;;
71351;SDS011;59159;51.652;4.864;2023-07-29T13:24:49;15.80;;;8.20;;
71351;SDS011;59159;51.652;4.864;2023-07-29T13:27:15;12.90;;;7.32;;
71351;SDS011;59159;51.652;4.864;2023-07-29T13:29:41;10.27;;;6.43;;
71351;SDS011;59159;51.652;4.864;2023-07-29T13:32:08;10.47;;;5.90;;
71351;SDS011;59159;51.652;4.864;2023-07-29T13:34:34;19.75;;;6.82;;
71351;SDS011;59159;51.652;4.864;2023-07-29T13:37:00;13.00;;;5.82;;
71351;SDS011;59159;51.652;4.864;2023-07-29T13:39:26;9.13;;;5.20;;
71351;SDS011;59159;51.652;4.864;2023-07-29T13:41:52;9.80;;;4.93;;
71351;SDS011;59159;51.652;4.864;2023-07-29T13:44:18;10.80;;;5.63;;
71351;SDS011;59159;51.652;4.864;2023-07-29T13:46:44;11.50;;;5.85;;
71351;SDS011;59159;51.652;4.864;2023-07-29T13:49:10;9.10;;;4.80;;
71351;SDS011;59159;51.652;4.864;2023-07-29T13:51:37;9.75;;;5.20;;
71351;SDS011;59159;51.652;4.864;2023-07-29T13:54:04;9.05;;;4.15;;
71351;SDS011;59159;51.652;4.864;2023-07-29T13:56:30;10.10;;;5.13;;
71351;SDS011;59159;51.652;4.864;2023-07-29T13:58:56;8.95;;;4.38;;
71351;SDS011;59159;51.652;4.864;2023-07-29T14:01:21;7.88;;;4.05;;
71351;SDS011;59159;51.652;4.864;2023-07-29T14:03:49;9.68;;;4.35;;
71351;SDS011;59159;51.652;4.864;2023-07-29T14:06:15;9.23;;;4.03;;
71351;SDS011;59159;51.652;4.864;2023-07-29T14:08:41;6.90;;;3.90;;
71351;SDS011;59159;51.652;4.864;2023-07-29T14:11:07;10.57;;;4.55;;
71351;SDS011;59159;51.652;4.864;2023-07-29T14:13:33;8.70;;;3.83;;
71351;SDS011;59159;51.652;4.864;2023-07-29T14:16:01;7.22;;;4.05;;
71351;SDS011;59159;51.652;4.864;2023-07-29T14:18:27;8.73;;;3.85;;
71351;SDS011;59159;51.652;4.864;2023-07-29T14:20:53;6.80;;;3.50;;
71351;SDS011;59159;51.652;4.864;2023-07-29T14:23:19;10.05;;;3.60;;
71351;SDS011;59159;51.652;4.864;2023-07-29T14:25:45;8.43;;;3.25;;
71351;SDS011;59159;51.652;4.864;2023-07-29T14:28:12;8.77;;;4.68;;
71351;SDS011;59159;51.652;4.864;2023-07-29T14:30:38;6.77;;;3.17;;
71351;SDS011;59159;51.652;4.864;2023-07-29T14:33:06;8.10;;;3.30;;
71351;SDS011;59159;51.652;4.864;2023-07-29T14:35:33;6.57;;;3.00;;
71351;SDS011;59159;51.652;4.864;2023-07-29T14:37:59;6.30;;;3.00;;
71351;SDS011;59159;51.652;4.864;2023-07-29T14:40:25;6.97;;;2.92;;
71351;SDS011;59159;51.652;4.864;2023-07-29T14:42:52;7.85;;;3.45;;
71351;SDS011;59159;51.652;4.864;2023-07-29T14:45:18;6.40;;;2.90;;
71351;SDS011;59159;51.652;4.864;2023-07-29T14:47:44;7.95;;;3.17;;
71351;SDS011;59159;51.652;4.864;2023-07-29T14:50:10;6.50;;;3.00;;
71351;SDS011;59159;51.652;4.864;2023-07-29T14:52:36;7.65;;;3.13;;
71351;SDS011;59159;51.652;4.864;2023-07-29T14:55:02;6.40;;;2.47;;
71351;SDS011;59159;51.652;4.864;2023-07-29T14:57:28;6.32;;;2.80;;